createdAt,value
2023-03-29T00:00:14.565Z,26.99
2023-03-29T00:01:35.662Z,26.97
2023-03-29T00:02:38.164Z,26.99
2023-03-29T00:03:42.495Z,26.99
2023-03-29T00:04:45.113Z,26.99
2023-03-29T00:05:47.363Z,26.97
2023-03-29T00:06:50.575Z,26.96
2023-03-29T00:08:01.743Z,26.96
2023-03-29T00:09:05.653Z,26.97
2023-03-29T00:10:10.186Z,26.96
2023-03-29T00:11:12.511Z,26.96
2023-03-29T00:12:14.500Z,26.96
2023-03-29T00:13:16.981Z,26.95
2023-03-29T00:14:18.775Z,26.96
2023-03-29T00:15:21.617Z,26.94
2023-03-29T00:16:23.498Z,26.94
2023-03-29T00:17:25.449Z,26.94
2023-03-29T00:18:27.286Z,26.93
2023-03-29T00:19:29.139Z,26.93
2023-03-29T00:20:31.136Z,26.94
2023-03-29T00:21:32.889Z,26.90
2023-03-29T00:22:34.713Z,26.90
2023-03-29T00:23:36.648Z,26.91
2023-03-29T00:24:38.528Z,26.90
2023-03-29T00:25:45.343Z,26.92
2023-03-29T00:26:47.212Z,26.90
2023-03-29T00:27:49.113Z,26.90
2023-03-29T00:28:51.004Z,26.89
2023-03-29T00:29:52.921Z,26.88
2023-03-29T00:31:07.419Z,26.93
2023-03-29T00:32:09.328Z,26.91
2023-03-29T00:33:11.471Z,26.90
2023-03-29T00:34:13.385Z,26.90
2023-03-29T00:35:15.272Z,26.88
2023-03-29T00:36:17.236Z,26.88
2023-03-29T00:37:19.533Z,26.86
2023-03-29T00:38:21.838Z,26.88
2023-03-29T00:39:25.140Z,26.88
2023-03-29T00:40:27.311Z,26.87
2023-03-29T00:41:29.184Z,26.87
2023-03-29T00:42:31.020Z,26.86
2023-03-29T00:44:02.610Z,26.98
2023-03-29T00:45:09.932Z,26.93
2023-03-29T00:46:11.734Z,26.87
2023-03-29T00:47:13.880Z,26.85
2023-03-29T00:48:24.373Z,26.89
2023-03-29T00:49:26.314Z,26.87
2023-03-29T00:50:41.965Z,26.90
2023-03-29T00:51:44.381Z,26.85
2023-03-29T00:52:54.886Z,26.86
2023-03-29T00:54:03.426Z,26.87
2023-03-29T00:55:13.949Z,26.87
2023-03-29T00:56:37.052Z,26.92
2023-03-29T00:57:46.513Z,26.86
2023-03-29T00:58:57.312Z,26.86
2023-03-29T01:00:01.466Z,26.82
2023-03-29T01:01:15.616Z,26.85
2023-03-29T01:02:23.671Z,26.82
2023-03-29T01:03:30.272Z,26.83
2023-03-29T01:04:41.625Z,26.83
2023-03-29T01:05:49.173Z,26.84
2023-03-29T01:07:03.082Z,26.84
2023-03-29T01:08:27.549Z,26.88
2023-03-29T01:09:35.006Z,26.84
2023-03-29T01:10:43.811Z,26.81
2023-03-29T01:11:59.456Z,26.85
2023-03-29T01:13:11.751Z,26.84
2023-03-29T01:14:39.968Z,26.87
2023-03-29T01:15:45.967Z,26.80
2023-03-29T01:16:48.109Z,26.76
2023-03-29T01:17:53.860Z,26.75
2023-03-29T01:18:58.388Z,26.76
2023-03-29T01:20:33.206Z,26.79
2023-03-29T01:22:13.590Z,26.86
2023-03-29T01:23:30.170Z,26.80
2023-03-29T01:24:54.984Z,26.81
2023-03-29T01:26:41.524Z,26.84
2023-03-29T01:28:04.050Z,26.81
2023-03-29T01:29:22.475Z,26.76
2023-03-29T01:30:32.098Z,26.75
2023-03-29T01:31:42.105Z,26.70
2023-03-29T01:33:00.048Z,26.75
2023-03-29T01:34:12.691Z,26.72
2023-03-29T01:35:41.964Z,26.79
2023-03-29T01:36:54.661Z,26.75
2023-03-29T01:38:09.774Z,26.74
2023-03-29T01:39:11.542Z,26.70
2023-03-29T01:40:13.549Z,26.66
2023-03-29T01:41:16.544Z,26.65
2023-03-29T01:42:46.770Z,26.75
2023-03-29T01:44:03.263Z,26.74
2023-03-29T01:45:34.358Z,26.76
2023-03-29T01:46:55.977Z,26.73
2023-03-29T01:48:36.803Z,26.79
2023-03-29T01:49:53.263Z,26.68
2023-03-29T01:51:04.530Z,26.68
2023-03-29T01:52:25.307Z,26.68
2023-03-29T01:53:49.936Z,26.69
2023-03-29T01:55:03.161Z,26.66
2023-03-29T01:56:17.063Z,26.64
2023-03-29T01:57:22.972Z,26.63
2023-03-29T01:58:33.803Z,26.63
2023-03-29T01:59:42.101Z,26.63
2023-03-29T02:00:45.918Z,26.61
2023-03-29T02:01:58.478Z,26.62
2023-03-29T02:03:07.988Z,26.64
2023-03-29T02:04:14.151Z,26.60
2023-03-29T02:05:18.193Z,26.56
2023-03-29T02:06:25.704Z,26.59
2023-03-29T02:07:32.332Z,26.61
2023-03-29T02:08:34.746Z,26.59
2023-03-29T02:09:39.816Z,26.61
2023-03-29T02:10:42.302Z,26.59
2023-03-29T02:11:45.958Z,26.60
2023-03-29T02:12:48.022Z,26.60
2023-03-29T02:13:49.853Z,26.60
2023-03-29T02:14:51.737Z,26.58
2023-03-29T02:15:54.142Z,26.58
2023-03-29T02:16:56.220Z,26.59
2023-03-29T02:17:58.115Z,26.58
2023-03-29T02:19:00.250Z,26.56
2023-03-29T02:20:25.540Z,26.67
2023-03-29T02:21:39.791Z,26.65
2023-03-29T02:22:52.541Z,26.65
2023-03-29T02:24:00.934Z,26.62
2023-03-29T02:25:06.324Z,26.59
2023-03-29T02:26:08.901Z,26.55
2023-03-29T02:27:10.848Z,26.55
2023-03-29T02:28:14.029Z,26.55
2023-03-29T02:29:16.340Z,26.56
2023-03-29T02:30:20.996Z,26.54
2023-03-29T02:31:26.064Z,26.56
2023-03-29T02:32:48.843Z,26.62
2023-03-29T02:34:16.050Z,26.61
2023-03-29T02:35:34.242Z,26.64
2023-03-29T02:36:41.962Z,26.60
2023-03-29T02:37:49.501Z,26.61
2023-03-29T02:38:52.964Z,26.56
2023-03-29T02:39:55.098Z,26.55
2023-03-29T02:40:59.742Z,26.58
2023-03-29T02:42:04.902Z,26.58
2023-03-29T02:43:11.114Z,26.55
2023-03-29T02:44:20.358Z,26.57
2023-03-29T02:45:25.304Z,26.55
2023-03-29T02:46:27.966Z,26.56
2023-03-29T02:47:41.309Z,26.58
2023-03-29T02:48:46.719Z,26.57
2023-03-29T02:49:48.872Z,26.55
2023-03-29T02:50:58.496Z,26.56
2023-03-29T02:52:11.018Z,26.56
2023-03-29T02:53:20.952Z,26.55
2023-03-29T02:54:29.952Z,26.55
2023-03-29T02:55:34.893Z,26.54
2023-03-29T02:56:49.325Z,26.56
2023-03-29T02:57:51.537Z,26.53
2023-03-29T02:58:53.326Z,26.52
2023-03-29T03:00:00.951Z,26.54
2023-03-29T03:01:06.878Z,26.53
2023-03-29T03:02:08.713Z,26.52
2023-03-29T03:03:13.433Z,26.52
2023-03-29T03:04:18.382Z,26.50
2023-03-29T03:05:20.204Z,26.51
2023-03-29T03:06:22.871Z,26.50
2023-03-29T03:07:24.931Z,26.50
2023-03-29T03:08:26.778Z,26.49
2023-03-29T03:09:28.638Z,26.47
2023-03-29T03:10:32.653Z,26.48
2023-03-29T03:11:34.630Z,26.48
2023-03-29T03:12:39.736Z,26.49
2023-03-29T03:13:41.550Z,26.51
2023-03-29T03:14:43.320Z,26.49
2023-03-29T03:15:48.903Z,26.48
2023-03-29T03:16:50.740Z,26.48
2023-03-29T03:17:53.151Z,26.46
2023-03-29T03:18:55.641Z,26.47
2023-03-29T03:19:57.442Z,26.48
2023-03-29T03:21:01.882Z,26.49
2023-03-29T03:22:05.878Z,26.47
2023-03-29T03:23:09.612Z,26.47
2023-03-29T03:24:11.398Z,26.48
2023-03-29T03:25:13.237Z,26.46
2023-03-29T03:26:18.158Z,26.47
2023-03-29T03:27:20.006Z,26.48
2023-03-29T03:28:24.074Z,26.47
2023-03-29T03:29:26.478Z,26.46
2023-03-29T03:30:28.776Z,26.46
2023-03-29T03:31:30.657Z,26.48
2023-03-29T03:32:34.660Z,26.48
2023-03-29T03:33:36.499Z,26.47
2023-03-29T03:34:38.821Z,26.49
2023-03-29T03:35:40.734Z,26.50
2023-03-29T03:36:42.541Z,26.50
2023-03-29T03:37:45.180Z,26.48
2023-03-29T03:38:47.657Z,26.52
2023-03-29T03:39:49.468Z,26.50
2023-03-29T03:40:56.212Z,26.55
2023-03-29T03:41:58.037Z,26.52
2023-03-29T03:42:59.940Z,26.52
2023-03-29T03:44:01.752Z,26.51
2023-03-29T03:45:03.833Z,26.54
2023-03-29T03:46:05.847Z,26.54
2023-03-29T03:47:07.838Z,26.53
2023-03-29T03:48:09.774Z,26.52
2023-03-29T03:49:12.056Z,26.51
2023-03-29T03:50:13.993Z,26.52
2023-03-29T03:51:15.899Z,26.55
2023-03-29T03:52:18.983Z,26.53
2023-03-29T03:53:22.670Z,26.52
2023-03-29T03:54:24.632Z,26.49
2023-03-29T03:55:26.575Z,26.50
2023-03-29T03:56:29.886Z,26.53
2023-03-29T03:57:33.066Z,26.51
2023-03-29T03:58:36.719Z,26.52
2023-03-29T03:59:39.016Z,26.49
2023-03-29T04:00:41.969Z,26.49
2023-03-29T04:01:43.932Z,26.50
2023-03-29T04:02:48.209Z,26.51
2023-03-29T04:03:50.882Z,26.52
2023-03-29T04:04:52.802Z,26.50
2023-03-29T04:05:54.625Z,26.49
2023-03-29T04:07:02.664Z,26.49
2023-03-29T04:08:06.716Z,26.51
2023-03-29T04:09:09.294Z,26.50
2023-03-29T04:10:11.564Z,26.51
2023-03-29T04:11:13.815Z,26.50
2023-03-29T04:12:15.740Z,26.52
2023-03-29T04:13:17.631Z,26.52
2023-03-29T04:14:20.431Z,26.52
2023-03-29T04:15:22.329Z,26.53
2023-03-29T04:16:24.566Z,26.51
2023-03-29T04:17:27.192Z,26.52
2023-03-29T04:18:29.212Z,26.53
2023-03-29T04:19:31.372Z,26.53
2023-03-29T04:20:34.042Z,26.53
2023-03-29T04:21:35.863Z,26.55
2023-03-29T04:22:39.186Z,26.56
2023-03-29T04:23:42.885Z,26.58
2023-03-29T04:24:44.791Z,26.59
2023-03-29T04:25:46.614Z,26.57
2023-03-29T04:26:48.439Z,26.60
2023-03-29T04:27:51.384Z,26.58
2023-03-29T04:28:53.215Z,26.60
2023-03-29T04:29:55.008Z,26.59
2023-03-29T04:30:56.912Z,26.62
2023-03-29T04:31:58.758Z,26.60
2023-03-29T04:33:01.280Z,26.62
2023-03-29T04:34:03.135Z,26.62
2023-03-29T04:35:05.999Z,26.63
2023-03-29T04:36:09.292Z,26.64
2023-03-29T04:37:11.184Z,26.64
2023-03-29T04:38:13.236Z,26.64
2023-03-29T04:39:15.132Z,26.65
2023-03-29T04:40:19.358Z,26.63
2023-03-29T04:41:21.244Z,26.63
2023-03-29T04:42:23.684Z,26.66
2023-03-29T04:43:25.549Z,26.66
2023-03-29T04:44:28.066Z,26.66
2023-03-29T04:45:30.071Z,26.67
2023-03-29T04:46:32.413Z,26.66
2023-03-29T04:47:36.289Z,26.66
2023-03-29T04:48:38.513Z,26.68
2023-03-29T04:49:41.227Z,26.66
2023-03-29T04:50:46.897Z,26.69
2023-03-29T04:51:48.853Z,26.68
2023-03-29T04:52:50.921Z,26.68
2023-03-29T04:53:52.772Z,26.69
2023-03-29T04:54:54.572Z,26.68
2023-03-29T04:55:57.864Z,26.69
2023-03-29T04:57:00.333Z,26.69
2023-03-29T04:58:02.816Z,26.69
2023-03-29T04:59:05.282Z,26.69
2023-03-29T05:00:17.364Z,26.68
2023-03-29T05:01:19.250Z,26.70
2023-03-29T05:02:21.991Z,26.69
2023-03-29T05:03:24.464Z,26.67
2023-03-29T05:04:28.451Z,26.68
2023-03-29T05:05:31.389Z,26.68
2023-03-29T05:06:33.226Z,26.67
2023-03-29T05:07:35.545Z,26.67
2023-03-29T05:08:39.902Z,26.70
2023-03-29T05:09:42.532Z,26.70
2023-03-29T05:10:46.197Z,26.70
2023-03-29T05:11:49.088Z,26.71
2023-03-29T05:12:53.922Z,26.69
2023-03-29T05:13:58.424Z,26.70
2023-03-29T05:15:00.318Z,26.69
2023-03-29T05:16:02.669Z,26.70
2023-03-29T05:17:05.128Z,26.68
2023-03-29T05:18:06.981Z,26.69
2023-03-29T05:19:11.595Z,26.68
2023-03-29T05:20:13.769Z,26.69
2023-03-29T05:21:15.658Z,26.69
2023-03-29T05:22:17.483Z,26.69
2023-03-29T05:23:20.181Z,26.68
2023-03-29T05:24:22.362Z,26.68
2023-03-29T05:25:25.812Z,26.70
2023-03-29T05:26:27.974Z,26.69
2023-03-29T05:27:29.861Z,26.69
2023-03-29T05:28:33.634Z,26.69
2023-03-29T05:29:35.469Z,26.71
2023-03-29T05:30:37.785Z,26.70
2023-03-29T05:31:39.802Z,26.72
2023-03-29T05:32:42.730Z,26.72
2023-03-29T05:33:45.063Z,26.70
2023-03-29T05:34:46.870Z,26.72
2023-03-29T05:35:48.877Z,26.72
2023-03-29T05:36:51.657Z,26.69
2023-03-29T05:37:53.759Z,26.70
2023-03-29T05:38:56.836Z,26.69
2023-03-29T05:40:05.886Z,26.70
2023-03-29T05:41:08.833Z,26.70
2023-03-29T05:42:13.634Z,26.69
2023-03-29T05:43:15.568Z,26.72
2023-03-29T05:44:17.406Z,26.70
2023-03-29T05:45:20.554Z,26.71
2023-03-29T05:46:22.351Z,26.69
2023-03-29T05:47:24.713Z,26.69
2023-03-29T05:48:27.374Z,26.72
2023-03-29T05:49:29.156Z,26.71
2023-03-29T05:50:32.095Z,26.69
2023-03-29T05:51:35.380Z,26.72
2023-03-29T05:52:37.605Z,26.69
2023-03-29T05:53:39.464Z,26.70
2023-03-29T05:54:42.093Z,26.69
2023-03-29T05:55:44.619Z,26.69
2023-03-29T05:56:46.695Z,26.70
2023-03-29T05:57:48.532Z,26.69
2023-03-29T05:58:50.963Z,26.70
2023-03-29T05:59:54.812Z,26.71
2023-03-29T06:00:57.131Z,26.70
2023-03-29T06:02:04.927Z,26.70
2023-03-29T06:03:19.951Z,26.73
2023-03-29T06:04:23.137Z,26.70
2023-03-29T06:05:26.320Z,26.74
2023-03-29T06:06:28.092Z,26.72
2023-03-29T06:07:29.928Z,26.73
2023-03-29T06:08:34.957Z,26.70
2023-03-29T06:09:36.816Z,26.71
2023-03-29T06:10:38.798Z,26.70
2023-03-29T06:11:40.822Z,26.69
2023-03-29T06:12:42.819Z,26.70
2023-03-29T06:13:44.641Z,26.68
2023-03-29T06:14:46.448Z,26.68
2023-03-29T06:15:48.208Z,26.69
2023-03-29T06:16:50.218Z,26.70
2023-03-29T06:17:52.440Z,26.68
2023-03-29T06:18:54.554Z,26.67
2023-03-29T06:19:57.793Z,26.68
2023-03-29T06:21:00.772Z,26.68
2023-03-29T06:22:02.871Z,26.71
2023-03-29T06:23:04.717Z,26.70
2023-03-29T06:24:06.804Z,26.70
2023-03-29T06:25:14.075Z,26.70
2023-03-29T06:26:16.409Z,26.72
2023-03-29T06:27:19.171Z,26.72
2023-03-29T06:28:21.526Z,26.72
2023-03-29T06:29:23.669Z,26.71
2023-03-29T06:30:25.872Z,26.72
2023-03-29T06:31:27.793Z,26.73
2023-03-29T06:32:30.210Z,26.72
2023-03-29T06:33:34.035Z,26.72
2023-03-29T06:34:38.431Z,26.75
2023-03-29T06:35:47.609Z,26.77
2023-03-29T06:36:51.011Z,26.74
2023-03-29T06:37:54.338Z,26.74
2023-03-29T06:38:56.249Z,26.72
2023-03-29T06:39:58.190Z,26.72
2023-03-29T06:41:08.910Z,26.74
2023-03-29T06:42:20.655Z,26.73
2023-03-29T06:43:23.189Z,26.74
2023-03-29T06:44:25.601Z,26.74
2023-03-29T06:45:30.983Z,26.74
2023-03-29T06:46:32.980Z,26.73
2023-03-29T06:47:34.942Z,26.73
2023-03-29T06:48:37.192Z,26.72
2023-03-29T06:49:39.558Z,26.73
2023-03-29T06:50:41.413Z,26.73
2023-03-29T06:51:43.284Z,26.72
2023-03-29T06:52:46.994Z,26.73
2023-03-29T06:53:48.856Z,26.73
2023-03-29T06:54:50.938Z,26.70
2023-03-29T06:55:52.751Z,26.72
2023-03-29T06:56:54.594Z,26.73
2023-03-29T06:57:56.446Z,26.72
2023-03-29T06:58:58.301Z,26.72
2023-03-29T07:00:00.179Z,26.70
2023-03-29T07:01:03.739Z,26.71
2023-03-29T07:02:07.265Z,26.72
2023-03-29T07:03:13.357Z,26.73
2023-03-29T07:04:16.106Z,26.74
2023-03-29T07:05:18.104Z,26.75
2023-03-29T07:06:20.517Z,26.73
2023-03-29T07:07:22.578Z,26.72
2023-03-29T07:08:30.973Z,26.71
2023-03-29T07:09:33.474Z,26.71
2023-03-29T07:10:43.174Z,26.75
2023-03-29T07:11:45.595Z,26.74
2023-03-29T07:12:51.532Z,26.75
2023-03-29T07:13:53.392Z,26.74
2023-03-29T07:14:55.203Z,26.74
2023-03-29T07:15:57.447Z,26.73
2023-03-29T07:16:59.407Z,26.75
2023-03-29T07:18:03.331Z,26.72
2023-03-29T07:19:05.512Z,26.75
2023-03-29T07:20:12.756Z,26.75
2023-03-29T07:21:14.652Z,26.75
2023-03-29T07:22:16.518Z,26.74
2023-03-29T07:23:18.629Z,26.74
2023-03-29T07:24:21.617Z,26.74
2023-03-29T07:25:25.294Z,26.76
2023-03-29T07:26:30.000Z,26.76
2023-03-29T07:27:32.102Z,26.76
2023-03-29T07:28:35.425Z,26.76
2023-03-29T07:29:37.778Z,26.76
2023-03-29T07:30:39.788Z,26.76
2023-03-29T07:31:43.662Z,26.77
2023-03-29T07:32:46.759Z,26.76
2023-03-29T07:33:52.409Z,26.78
2023-03-29T07:34:54.448Z,26.80
2023-03-29T07:35:57.205Z,26.79
2023-03-29T07:36:59.323Z,26.81
2023-03-29T07:38:01.395Z,26.80
2023-03-29T07:39:03.808Z,26.77
2023-03-29T07:40:11.330Z,26.80
2023-03-29T07:41:13.214Z,26.80
2023-03-29T07:42:15.061Z,26.78
2023-03-29T07:43:18.242Z,26.80
2023-03-29T07:44:21.522Z,26.80
2023-03-29T07:45:28.547Z,26.80
2023-03-29T07:46:31.350Z,26.81
2023-03-29T07:47:33.481Z,26.82
2023-03-29T07:48:36.932Z,26.79
2023-03-29T07:49:39.064Z,26.81
2023-03-29T07:50:42.017Z,26.81
2023-03-29T07:51:43.912Z,26.80
2023-03-29T07:52:46.156Z,26.81
2023-03-29T07:53:49.115Z,26.83
2023-03-29T07:54:51.049Z,26.81
2023-03-29T07:55:54.805Z,26.82
2023-03-29T07:56:56.666Z,26.82
2023-03-29T07:57:58.545Z,26.83
2023-03-29T07:59:00.330Z,26.83
2023-03-29T08:00:16.365Z,26.83
2023-03-29T08:01:19.915Z,26.81
2023-03-29T08:02:22.222Z,26.83
2023-03-29T08:03:24.255Z,26.82
2023-03-29T08:04:26.538Z,26.83
2023-03-29T08:05:40.177Z,26.85
2023-03-29T08:06:43.496Z,26.87
2023-03-29T08:07:47.093Z,26.86
2023-03-29T08:08:49.041Z,26.84
2023-03-29T08:09:50.937Z,26.87
2023-03-29T08:10:53.611Z,26.87
2023-03-29T08:11:55.455Z,26.86
2023-03-29T08:12:58.056Z,26.87
2023-03-29T08:13:59.963Z,26.89
2023-03-29T08:15:01.998Z,26.88
2023-03-29T08:16:05.720Z,26.86
2023-03-29T08:17:07.698Z,26.88
2023-03-29T08:18:09.801Z,26.88
2023-03-29T08:19:11.700Z,26.88
2023-03-29T08:20:18.458Z,26.89
2023-03-29T08:21:20.405Z,26.91
2023-03-29T08:22:22.366Z,26.90
2023-03-29T08:23:24.162Z,26.88
2023-03-29T08:24:26.491Z,26.90
2023-03-29T08:25:28.280Z,26.71
2023-03-29T08:26:30.604Z,26.85
2023-03-29T08:27:33.055Z,26.88
2023-03-29T08:28:36.056Z,26.90
2023-03-29T08:29:38.164Z,26.93
2023-03-29T08:30:40.025Z,26.93
2023-03-29T08:31:41.866Z,26.97
2023-03-29T08:32:44.033Z,26.95
2023-03-29T08:33:46.788Z,26.98
2023-03-29T08:34:48.732Z,26.98
2023-03-29T08:35:50.702Z,26.98
2023-03-29T08:36:53.994Z,27.00
2023-03-29T08:37:55.754Z,26.99
2023-03-29T08:38:57.756Z,27.01
2023-03-29T08:40:00.876Z,27.00
2023-03-29T08:41:28.756Z,27.11
2023-03-29T08:43:12.876Z,27.20
2023-03-29T08:44:26.587Z,27.14
2023-03-29T08:46:00.011Z,27.13
2023-03-29T08:47:10.555Z,27.14
2023-03-29T08:48:34.097Z,27.19
2023-03-29T08:49:39.815Z,27.12
2023-03-29T08:50:52.823Z,27.12
2023-03-29T08:52:13.313Z,27.14
2023-03-29T08:53:20.182Z,27.13
2023-03-29T08:54:30.093Z,27.14
2023-03-29T08:55:37.445Z,27.13
2023-03-29T08:56:45.463Z,27.12
2023-03-29T08:57:51.762Z,27.12
2023-03-29T08:58:57.399Z,27.14
2023-03-29T09:00:05.554Z,27.14
2023-03-29T09:01:11.334Z,27.14
2023-03-29T09:02:22.311Z,27.17
2023-03-29T09:03:31.225Z,27.15
2023-03-29T09:04:39.863Z,27.16
2023-03-29T09:05:48.947Z,27.19
2023-03-29T09:06:50.839Z,27.17
2023-03-29T09:07:54.000Z,27.14
2023-03-29T09:08:55.885Z,27.17
2023-03-29T09:09:57.742Z,27.19
2023-03-29T09:11:08.196Z,27.22
2023-03-29T09:13:04.951Z,27.38
2023-03-29T09:14:55.716Z,27.37
2023-03-29T09:16:12.445Z,27.31
2023-03-29T09:17:47.130Z,27.32
2023-03-29T09:19:27.687Z,27.35
2023-03-29T09:21:01.526Z,27.32
2023-03-29T09:22:25.023Z,27.29
2023-03-29T09:24:03.911Z,27.36
2023-03-29T09:25:25.115Z,27.33
2023-03-29T09:26:47.650Z,27.31
2023-03-29T09:28:14.741Z,27.35
2023-03-29T09:29:37.940Z,27.34
2023-03-29T09:31:07.210Z,27.28
2023-03-29T09:32:25.079Z,27.34
2023-03-29T09:33:50.791Z,27.37
2023-03-29T09:35:24.902Z,27.42
2023-03-29T09:36:45.111Z,27.35
2023-03-29T09:37:51.211Z,27.33
2023-03-29T09:38:55.350Z,27.31
2023-03-29T09:39:57.931Z,27.30
2023-03-29T09:41:31.731Z,27.44
2023-03-29T09:42:33.742Z,27.35
2023-03-29T09:43:42.370Z,27.36
2023-03-29T09:44:52.605Z,27.38
2023-03-29T09:46:01.073Z,27.38
2023-03-29T09:47:30.071Z,27.50
2023-03-29T09:48:38.013Z,27.46
2023-03-29T09:49:47.841Z,27.45
2023-03-29T09:50:52.205Z,27.43
2023-03-29T09:52:01.625Z,27.44
2023-03-29T09:53:05.431Z,27.43
2023-03-29T09:54:12.033Z,27.49
2023-03-29T09:55:17.732Z,27.47
2023-03-29T09:56:19.868Z,27.49
2023-03-29T09:57:21.870Z,27.50
2023-03-29T09:58:27.795Z,27.52
2023-03-29T09:59:30.602Z,27.51
2023-03-29T10:00:32.421Z,27.53
2023-03-29T10:01:42.438Z,27.58
2023-03-29T10:02:57.142Z,27.61
2023-03-29T10:03:59.738Z,27.58
2023-03-29T10:05:07.453Z,27.59
2023-03-29T10:06:12.553Z,27.60
2023-03-29T10:07:20.699Z,27.64
2023-03-29T10:08:38.697Z,27.68
2023-03-29T10:09:45.831Z,27.66
2023-03-29T10:10:48.501Z,27.64
2023-03-29T10:11:56.702Z,27.66
2023-03-29T10:13:07.113Z,27.70
2023-03-29T10:14:43.230Z,27.81
2023-03-29T10:15:45.113Z,27.72
2023-03-29T10:16:54.262Z,27.69
2023-03-29T10:18:10.755Z,27.75
2023-03-29T10:19:35.139Z,27.82
2023-03-29T10:20:39.833Z,27.75
2023-03-29T10:21:42.290Z,27.74
2023-03-29T10:22:57.303Z,27.80
2023-03-29T10:23:59.443Z,27.78
2023-03-29T10:25:02.106Z,27.75
2023-03-29T10:26:38.896Z,27.91
2023-03-29T10:27:44.620Z,27.83
2023-03-29T10:28:46.614Z,27.80
2023-03-29T10:29:49.703Z,27.79
2023-03-29T10:30:59.474Z,27.84
2023-03-29T10:32:01.569Z,27.81
2023-03-29T10:33:05.157Z,27.79
2023-03-29T10:34:10.252Z,27.80
2023-03-29T10:35:19.168Z,27.84
2023-03-29T10:36:25.773Z,27.83
2023-03-29T10:37:28.960Z,27.83
2023-03-29T10:38:30.916Z,27.87
2023-03-29T10:39:37.232Z,27.90
2023-03-29T10:40:48.723Z,27.92
2023-03-29T10:41:52.762Z,27.88
2023-03-29T10:43:12.182Z,27.90
2023-03-29T10:44:33.234Z,27.99
2023-03-29T10:45:37.766Z,27.91
2023-03-29T10:46:44.113Z,27.92
2023-03-29T10:47:48.714Z,27.90
2023-03-29T10:49:05.941Z,27.94
2023-03-29T10:50:15.859Z,27.96
2023-03-29T10:51:19.706Z,27.92
2023-03-29T10:52:22.451Z,27.94
2023-03-29T10:53:33.218Z,27.97
2023-03-29T10:54:36.711Z,27.93
2023-03-29T10:56:14.997Z,28.01
2023-03-29T10:57:33.680Z,28.04
2023-03-29T10:59:07.336Z,28.08
2023-03-29T11:00:33.854Z,28.12
2023-03-29T11:02:14.272Z,28.15
2023-03-29T11:04:04.119Z,28.12
2023-03-29T11:05:41.326Z,28.14
2023-03-29T11:07:09.499Z,28.08
2023-03-29T11:08:52.584Z,28.14
2023-03-29T11:10:33.830Z,28.12
2023-03-29T11:12:15.688Z,28.12
2023-03-29T11:13:53.820Z,28.15
2023-03-29T11:15:32.447Z,28.14
2023-03-29T11:17:12.796Z,28.07
2023-03-29T11:18:36.453Z,28.14
2023-03-29T11:19:56.603Z,28.10
2023-03-29T11:21:08.480Z,28.04
2023-03-29T11:22:47.587Z,28.14
2023-03-29T11:24:19.784Z,28.14
2023-03-29T11:25:39.297Z,28.09
2023-03-29T11:27:10.140Z,28.16
2023-03-29T11:28:28.531Z,28.12
2023-03-29T11:29:53.420Z,28.14
2023-03-29T11:31:42.678Z,28.16
2023-03-29T11:33:02.976Z,28.16
2023-03-29T11:34:50.043Z,28.23
2023-03-29T11:36:14.658Z,28.17
2023-03-29T11:37:43.054Z,28.19
2023-03-29T11:39:01.246Z,28.19
2023-03-29T11:40:27.173Z,28.12
2023-03-29T11:41:35.906Z,28.11
2023-03-29T11:42:47.179Z,28.12
2023-03-29T11:44:29.619Z,28.23
2023-03-29T11:45:52.591Z,28.21
2023-03-29T11:47:09.677Z,28.17
2023-03-29T11:48:22.400Z,28.17
2023-03-29T11:49:38.399Z,28.17
2023-03-29T11:50:50.465Z,28.18
2023-03-29T11:52:24.429Z,28.27
2023-03-29T11:54:07.938Z,28.29
2023-03-29T11:55:26.052Z,28.24
2023-03-29T11:56:44.766Z,28.26
2023-03-29T11:57:56.778Z,28.21
2023-03-29T11:59:09.929Z,28.23
2023-03-29T12:00:43.631Z,28.25
2023-03-29T12:01:54.810Z,28.25
2023-03-29T12:02:59.500Z,28.22
2023-03-29T12:04:13.340Z,28.24
2023-03-29T12:05:32.795Z,28.29
2023-03-29T12:07:13.078Z,28.35
2023-03-29T12:08:35.533Z,28.33
2023-03-29T12:09:44.757Z,28.27
2023-03-29T12:10:52.977Z,28.25
2023-03-29T12:12:15.808Z,28.33
2023-03-29T12:13:38.540Z,28.34
2023-03-29T12:15:15.831Z,28.34
2023-03-29T12:16:29.939Z,28.34
2023-03-29T12:17:59.234Z,28.29
2023-03-29T12:19:19.057Z,28.34
2023-03-29T12:20:34.414Z,28.35
2023-03-29T12:21:37.142Z,28.28
2023-03-29T12:22:39.909Z,28.29
2023-03-29T12:23:43.848Z,28.29
2023-03-29T12:24:51.116Z,28.30
2023-03-29T12:26:25.452Z,28.37
2023-03-29T12:27:56.203Z,28.38
2023-03-29T12:29:20.403Z,28.43
2023-03-29T12:31:03.474Z,28.39
2023-03-29T12:32:27.788Z,28.42
2023-03-29T12:34:05.903Z,28.44
2023-03-29T12:35:46.646Z,28.50
2023-03-29T12:37:03.487Z,28.37
2023-03-29T12:38:30.553Z,28.44
2023-03-29T12:39:33.683Z,28.37
2023-03-29T12:40:53.872Z,28.41
2023-03-29T12:42:16.997Z,28.44
2023-03-29T12:43:41.198Z,28.46
2023-03-29T12:44:52.863Z,28.40
2023-03-29T12:46:26.762Z,28.49
2023-03-29T12:47:43.133Z,28.41
2023-03-29T12:48:51.143Z,28.40
2023-03-29T12:49:58.081Z,28.37
2023-03-29T12:51:03.197Z,28.38
2023-03-29T12:52:31.401Z,28.43
2023-03-29T12:53:40.824Z,28.40
2023-03-29T12:54:58.750Z,28.39
2023-03-29T12:56:04.079Z,28.36
2023-03-29T12:57:42.686Z,28.49
2023-03-29T12:58:59.569Z,28.44
2023-03-29T13:00:20.624Z,28.43
2023-03-29T13:01:41.477Z,28.44
2023-03-29T13:02:45.767Z,28.37
2023-03-29T13:03:52.046Z,28.35
2023-03-29T13:05:01.165Z,28.35
2023-03-29T13:06:08.639Z,28.36
2023-03-29T13:07:24.134Z,28.41
2023-03-29T13:08:39.092Z,28.39
2023-03-29T13:09:56.159Z,28.42
2023-03-29T13:10:58.752Z,28.34
2023-03-29T13:12:20.942Z,28.41
2023-03-29T13:13:33.080Z,28.41
2023-03-29T13:14:42.641Z,28.38
2023-03-29T13:15:46.181Z,28.37
2023-03-29T13:16:48.578Z,28.36
2023-03-29T13:17:56.655Z,28.37
2023-03-29T13:19:06.528Z,28.38
2023-03-29T13:20:21.727Z,28.37
2023-03-29T13:21:56.892Z,28.48
2023-03-29T13:23:07.590Z,28.40
2023-03-29T13:24:37.433Z,28.49
2023-03-29T13:25:52.124Z,28.42
2023-03-29T13:27:26.083Z,28.49
2023-03-29T13:29:04.780Z,28.45
2023-03-29T13:30:28.457Z,28.48
2023-03-29T13:31:56.105Z,28.45
2023-03-29T13:33:11.793Z,28.41
2023-03-29T13:34:55.078Z,28.46
2023-03-29T13:36:14.310Z,28.42
2023-03-29T13:37:40.125Z,28.37
2023-03-29T13:38:49.849Z,28.37
2023-03-29T13:39:55.285Z,28.33
2023-03-29T13:41:07.237Z,28.36
2023-03-29T13:42:40.130Z,28.43
2023-03-29T13:43:44.787Z,28.36
2023-03-29T13:44:49.246Z,28.33
2023-03-29T13:45:57.380Z,28.35
2023-03-29T13:47:25.674Z,28.42
2023-03-29T13:48:43.994Z,28.41
2023-03-29T13:49:56.287Z,28.36
2023-03-29T13:51:19.503Z,28.35
2023-03-29T13:52:34.524Z,28.39
2023-03-29T13:53:51.651Z,28.36
2023-03-29T13:55:00.622Z,28.33
2023-03-29T13:56:06.208Z,28.32
2023-03-29T13:57:08.766Z,28.30
2023-03-29T13:58:26.025Z,28.32
2023-03-29T13:59:47.839Z,28.40
2023-03-29T14:01:22.489Z,28.45
2023-03-29T14:02:40.329Z,28.39
2023-03-29T14:03:51.465Z,28.36
2023-03-29T14:04:54.046Z,28.30
2023-03-29T14:06:04.844Z,28.33
2023-03-29T14:07:10.599Z,28.30
2023-03-29T14:08:30.510Z,28.37
2023-03-29T14:09:39.984Z,28.32
2023-03-29T14:10:44.993Z,28.30
2023-03-29T14:11:48.392Z,28.29
2023-03-29T14:12:50.990Z,28.29
2023-03-29T14:13:59.542Z,28.32
2023-03-29T14:15:05.520Z,28.30
2023-03-29T14:16:11.681Z,28.32
2023-03-29T14:17:23.045Z,28.36
2023-03-29T14:18:28.604Z,28.32
2023-03-29T14:19:36.805Z,28.32
2023-03-29T14:20:43.920Z,28.33
2023-03-29T14:21:46.411Z,28.29
2023-03-29T14:22:49.327Z,28.30
2023-03-29T14:23:59.814Z,28.32
2023-03-29T14:25:13.950Z,28.36
2023-03-29T14:26:23.183Z,28.34
2023-03-29T14:27:29.990Z,28.31
2023-03-29T14:28:33.181Z,28.31
2023-03-29T14:29:36.793Z,28.31
2023-03-29T14:30:38.621Z,28.30
2023-03-29T14:31:42.591Z,28.30
2023-03-29T14:32:44.558Z,28.30
2023-03-29T14:33:55.351Z,28.33
2023-03-29T14:34:57.922Z,28.32
2023-03-29T14:36:04.068Z,28.33
2023-03-29T14:37:09.221Z,28.30
2023-03-29T14:38:12.904Z,28.33
2023-03-29T14:39:21.144Z,28.33
2023-03-29T14:40:24.339Z,28.31
2023-03-29T14:41:32.172Z,28.33
2023-03-29T14:42:34.032Z,28.31
2023-03-29T14:43:36.001Z,28.29
2023-03-29T14:44:37.935Z,28.29
2023-03-29T14:45:40.259Z,28.29
2023-03-29T14:46:46.732Z,28.32
2023-03-29T14:47:50.863Z,28.30
2023-03-29T14:48:54.119Z,28.30